createdAt,value
2017-08-11T00:00:36.718Z,15.3
2017-08-11T00:01:37.533Z,15.4
2017-08-11T00:02:38.634Z,15.4
2017-08-11T00:03:39.445Z,15.3
2017-08-11T00:04:40.265Z,15.3
2017-08-11T00:05:40.999Z,15.4
2017-08-11T00:06:41.741Z,15.3
2017-08-11T00:07:42.929Z,15.3
2017-08-11T00:08:43.676Z,15.4
2017-08-11T00:09:44.421Z,15.3
2017-08-11T00:10:45.229Z,15.3
2017-08-11T00:11:46.047Z,15.4
2017-08-11T00:12:47.191Z,15.3
2017-08-11T00:13:47.980Z,15.3
2017-08-11T00:14:48.722Z,15.3
2017-08-11T00:15:49.550Z,15.2
2017-08-11T00:16:50.300Z,15.3
2017-08-11T00:17:51.080Z,15.3
2017-08-11T00:18:51.823Z,15.3
2017-08-11T00:19:52.562Z,15.3
2017-08-11T00:20:53.309Z,15.3
2017-08-11T00:21:54.039Z,15.2
2017-08-11T00:22:55.079Z,15.3
2017-08-11T00:23:55.816Z,15.3
2017-08-11T00:24:56.649Z,15.3
2017-08-11T00:25:57.382Z,15.3
2017-08-11T00:26:58.139Z,15.3
2017-08-11T00:27:59.252Z,15.3
2017-08-11T00:28:59.993Z,15.3
2017-08-11T00:30:00.785Z,15.3
2017-08-11T00:31:01.610Z,15.3
2017-08-11T00:32:02.886Z,15.3
2017-08-11T00:33:05.442Z,15.3
2017-08-11T00:34:06.058Z,15.4
2017-08-11T00:35:06.810Z,15.2
2017-08-11T00:36:07.554Z,15.3
2017-08-11T00:37:08.339Z,15.2
2017-08-11T00:38:09.087Z,15.2
2017-08-11T00:39:09.826Z,15.3
2017-08-11T00:40:10.996Z,15.2
2017-08-11T00:41:11.752Z,15.3
2017-08-11T00:42:12.542Z,15.3
2017-08-11T00:43:13.289Z,15.2
2017-08-11T00:44:14.018Z,15.3
2017-08-11T00:45:15.109Z,15.3
2017-08-11T00:46:15.852Z,15.3
2017-08-11T00:47:16.660Z,15.3
2017-08-11T00:48:17.403Z,15.3
2017-08-11T00:49:18.149Z,15.2
2017-08-11T00:50:18.900Z,15.2
2017-08-11T00:51:19.645Z,15.3
2017-08-11T00:52:20.626Z,15.3
2017-08-11T00:53:21.359Z,15.1
2017-08-11T00:54:22.091Z,15.2
2017-08-11T00:55:22.827Z,15.1
2017-08-11T00:56:23.566Z,15.1
2017-08-11T00:57:24.780Z,15.2
2017-08-11T00:58:25.593Z,15.1
2017-08-11T00:59:26.399Z,15.1
2017-08-11T01:00:27.157Z,15.2
2017-08-11T01:01:27.920Z,15.1
2017-08-11T01:02:28.741Z,15.1
2017-08-11T01:03:29.473Z,15.2
2017-08-11T01:04:30.563Z,15.2
2017-08-11T01:05:31.294Z,15.2
2017-08-11T01:06:32.037Z,15.2
2017-08-11T01:07:32.774Z,15.2
2017-08-11T01:08:33.599Z,15.2
2017-08-11T01:09:34.788Z,15.1
2017-08-11T01:10:35.520Z,15.1
2017-08-11T01:11:36.260Z,15.2
2017-08-11T01:12:36.980Z,15.2
2017-08-11T01:13:37.779Z,15.1
2017-08-11T01:14:38.526Z,15.1
2017-08-11T01:15:39.663Z,15.1
2017-08-11T01:16:40.410Z,15.1
2017-08-11T01:17:41.164Z,15.1
2017-08-11T01:18:41.900Z,15.0
2017-08-11T01:19:42.631Z,15.0
2017-08-11T01:20:43.680Z,15.0
2017-08-11T01:21:44.422Z,15.0
2017-08-11T01:22:45.210Z,15.0
2017-08-11T01:23:45.955Z,14.9
2017-08-11T01:24:46.699Z,15.0
2017-08-11T01:25:47.734Z,15.0
2017-08-11T01:26:48.530Z,14.9
2017-08-11T01:27:49.309Z,15.0
2017-08-11T01:28:50.049Z,14.9
2017-08-11T01:29:50.786Z,14.9
2017-08-11T01:30:51.928Z,14.9
2017-08-11T01:31:52.665Z,14.9
2017-08-11T01:32:53.410Z,15.0
2017-08-11T01:33:54.212Z,14.9
2017-08-11T01:34:54.959Z,14.9
2017-08-11T01:35:55.690Z,14.8
2017-08-11T01:36:56.422Z,14.8
2017-08-11T01:37:57.161Z,14.8
2017-08-11T01:38:58.315Z,14.8
2017-08-11T01:39:59.130Z,14.9
2017-08-11T01:40:59.868Z,14.9
2017-08-11T01:42:00.669Z,14.8
2017-08-11T01:43:01.411Z,14.8
2017-08-11T01:44:02.500Z,14.9
2017-08-11T01:45:03.237Z,14.7
2017-08-11T01:46:03.970Z,14.8
2017-08-11T01:47:04.714Z,14.8
2017-08-11T01:48:05.534Z,14.8
2017-08-11T01:49:06.708Z,14.8
2017-08-11T01:50:07.502Z,14.8
2017-08-11T01:51:08.237Z,14.7
2017-08-11T01:52:10.385Z,14.7
2017-08-11T01:53:12.341Z,14.7
2017-08-11T01:54:14.332Z,14.7
2017-08-11T01:55:15.461Z,14.8
2017-08-11T01:56:16.764Z,14.8
2017-08-11T01:57:17.499Z,14.8
2017-08-11T01:58:18.241Z,14.8
2017-08-11T01:59:19.387Z,14.7
2017-08-11T02:00:20.169Z,14.7
2017-08-11T02:01:20.899Z,14.7
2017-08-11T02:02:21.640Z,14.7
2017-08-11T02:03:22.379Z,14.7
2017-08-11T02:04:23.168Z,14.7
2017-08-11T02:05:23.953Z,14.7
2017-08-11T02:06:24.988Z,14.7
2017-08-11T02:07:25.732Z,14.7
2017-08-11T02:08:26.471Z,14.8
2017-08-11T02:09:27.275Z,14.7
2017-08-11T02:10:28.088Z,14.7
2017-08-11T02:11:29.281Z,14.7
2017-08-11T02:12:30.079Z,14.7
2017-08-11T02:13:30.815Z,14.6
2017-08-11T02:14:31.647Z,14.7
2017-08-11T02:15:32.445Z,14.7
2017-08-11T02:16:33.539Z,14.6
2017-08-11T02:17:34.279Z,14.7
2017-08-11T02:18:35.638Z,14.7
2017-08-11T02:19:37.509Z,14.7
2017-08-11T02:21:41.505Z,14.7
2017-08-11T02:22:43.194Z,14.7
2017-08-11T02:23:44.586Z,14.7
2017-08-11T02:24:46.285Z,14.7
2017-08-11T02:25:46.991Z,14.7
2017-08-11T02:26:48.005Z,14.6
2017-08-11T02:27:49.520Z,14.6
2017-08-11T02:28:51.642Z,14.6
2017-08-11T02:29:53.030Z,14.6
2017-08-11T02:30:53.722Z,14.6
2017-08-11T02:31:54.838Z,14.6
2017-08-11T02:32:55.604Z,14.7
2017-08-11T02:33:56.410Z,14.7
2017-08-11T02:34:57.151Z,14.7
2017-08-11T02:35:57.892Z,14.7
2017-08-11T02:36:58.970Z,14.6
2017-08-11T02:37:59.782Z,14.7
2017-08-11T02:39:00.536Z,14.6
2017-08-11T02:40:01.323Z,14.6
2017-08-11T02:41:02.137Z,14.6
2017-08-11T02:42:03.258Z,14.6
2017-08-11T02:43:03.991Z,14.6
2017-08-11T02:44:04.792Z,14.7
2017-08-11T02:45:05.479Z,14.7
2017-08-11T02:46:06.207Z,14.6
2017-08-11T02:47:07.252Z,14.5
2017-08-11T02:48:07.978Z,14.6
2017-08-11T02:49:08.724Z,14.6
2017-08-11T02:50:09.525Z,14.5
2017-08-11T02:51:10.278Z,14.5
2017-08-11T02:52:11.363Z,14.5
2017-08-11T02:53:12.113Z,14.6
2017-08-11T02:54:12.901Z,14.5
2017-08-11T02:55:13.689Z,14.6
2017-08-11T02:56:14.432Z,14.5
2017-08-11T02:57:15.578Z,14.5
2017-08-11T02:58:16.313Z,14.5
2017-08-11T02:59:17.055Z,14.6
2017-08-11T03:00:17.779Z,14.5
2017-08-11T03:01:18.514Z,14.6
2017-08-11T03:02:19.449Z,14.5
2017-08-11T03:03:20.203Z,14.5
2017-08-11T03:04:20.935Z,14.5
2017-08-11T03:05:21.745Z,14.5
2017-08-11T03:06:22.489Z,14.5
2017-08-11T03:07:23.628Z,14.5
2017-08-11T03:08:24.368Z,14.4
2017-08-11T03:09:25.198Z,14.5
2017-08-11T03:10:25.997Z,14.4
2017-08-11T03:11:26.731Z,14.5
2017-08-11T03:12:27.825Z,14.4
2017-08-11T03:13:28.547Z,14.4
2017-08-11T03:14:29.356Z,14.4
2017-08-11T03:15:30.169Z,14.4
2017-08-11T03:16:30.962Z,14.4
2017-08-11T03:17:31.953Z,14.5
2017-08-11T03:18:32.698Z,14.4
2017-08-11T03:19:33.489Z,14.5
2017-08-11T03:20:34.238Z,14.5
2017-08-11T03:21:34.978Z,14.5
2017-08-11T03:22:35.784Z,14.5
2017-08-11T03:23:37.037Z,14.5
2017-08-11T03:24:37.769Z,14.4
2017-08-11T03:25:38.591Z,14.5
2017-08-11T03:26:39.319Z,14.5
2017-08-11T03:27:40.136Z,14.4
2017-08-11T03:28:40.921Z,14.5
2017-08-11T03:29:41.960Z,14.5
2017-08-11T03:30:42.701Z,14.5
2017-08-11T03:31:43.430Z,14.5
2017-08-11T03:32:44.177Z,14.5
2017-08-11T03:33:44.919Z,14.5
2017-08-11T03:34:46.084Z,14.5
2017-08-11T03:35:46.819Z,14.5
2017-08-11T03:36:47.581Z,14.5
2017-08-11T03:37:48.300Z,14.5
2017-08-11T03:38:49.153Z,14.5
2017-08-11T03:39:50.252Z,14.5
2017-08-11T03:40:51.024Z,14.6
2017-08-11T03:41:51.838Z,14.5
2017-08-11T03:42:52.648Z,14.5
2017-08-11T03:43:53.380Z,14.5
2017-08-11T03:44:55.027Z,14.5
2017-08-11T03:45:55.757Z,14.5
2017-08-11T03:46:56.496Z,14.5
2017-08-11T03:47:57.225Z,14.5
2017-08-11T03:48:57.959Z,14.5
2017-08-11T03:49:58.979Z,14.5
2017-08-11T03:50:59.809Z,14.5
2017-08-11T03:52:00.620Z,14.5
2017-08-11T03:53:01.362Z,14.4
2017-08-11T03:54:02.114Z,14.5
2017-08-11T03:55:03.297Z,14.4
2017-08-11T03:56:04.056Z,14.5
2017-08-11T03:57:04.854Z,14.5
2017-08-11T03:58:05.679Z,14.5
2017-08-11T03:59:06.496Z,14.5
2017-08-11T04:00:07.443Z,14.5
2017-08-11T04:01:08.183Z,14.4
2017-08-11T04:02:09.012Z,14.4
2017-08-11T04:03:09.848Z,14.4
2017-08-11T04:04:10.579Z,14.5
2017-08-11T04:05:11.602Z,14.4
2017-08-11T04:06:12.391Z,14.4
2017-08-11T04:07:13.139Z,14.4
2017-08-11T04:08:13.885Z,14.5
2017-08-11T04:09:14.608Z,14.5
2017-08-11T04:10:15.827Z,14.4
2017-08-11T04:11:16.570Z,14.4
2017-08-11T04:12:17.325Z,14.4
2017-08-11T04:13:18.121Z,14.4
2017-08-11T04:14:18.900Z,14.4
2017-08-11T04:15:19.644Z,14.5
2017-08-11T04:16:20.391Z,14.5
2017-08-11T04:17:21.593Z,14.5
2017-08-11T04:18:22.333Z,14.4
2017-08-11T04:19:23.065Z,14.4
2017-08-11T04:20:23.868Z,14.5
2017-08-11T04:21:24.606Z,14.5
2017-08-11T04:22:25.737Z,14.4
2017-08-11T04:23:26.490Z,14.5
2017-08-11T04:24:27.282Z,14.5
2017-08-11T04:25:28.025Z,14.5
2017-08-11T04:26:28.785Z,14.4
2017-08-11T04:27:30.060Z,14.5
2017-08-11T04:28:30.797Z,14.4
2017-08-11T04:29:31.538Z,14.4
2017-08-11T04:30:32.281Z,14.5
2017-08-11T04:31:33.007Z,14.4
2017-08-11T04:32:34.150Z,14.5
2017-08-11T04:33:34.893Z,14.6
2017-08-11T04:34:35.708Z,14.4
2017-08-11T04:35:36.459Z,14.5
2017-08-11T04:36:37.197Z,14.4
2017-08-11T04:37:38.159Z,14.5
2017-08-11T04:38:38.892Z,14.5
2017-08-11T04:39:39.655Z,14.5
2017-08-11T04:40:40.409Z,14.5
2017-08-11T04:41:41.224Z,14.5
2017-08-11T04:42:42.402Z,14.4
2017-08-11T04:43:43.231Z,14.5
2017-08-11T04:44:43.972Z,14.4
2017-08-11T04:45:44.775Z,14.4
2017-08-11T04:46:45.512Z,14.4
2017-08-11T04:47:46.670Z,14.5
2017-08-11T04:48:47.416Z,14.4
2017-08-11T04:49:48.135Z,14.4
2017-08-11T04:50:48.874Z,14.5
2017-08-11T04:51:49.690Z,14.5
2017-08-11T04:52:50.713Z,14.5
2017-08-11T04:53:51.527Z,14.5
2017-08-11T04:54:52.264Z,14.5
2017-08-11T04:55:53.001Z,14.4
2017-08-11T04:56:53.752Z,14.5
2017-08-11T04:57:54.842Z,14.5
2017-08-11T04:58:55.657Z,14.5
2017-08-11T04:59:56.388Z,14.5
2017-08-11T05:00:57.143Z,14.5
2017-08-11T05:01:57.852Z,14.5
2017-08-11T05:02:58.583Z,14.5
2017-08-11T05:03:59.330Z,14.5
2017-08-11T05:05:00.089Z,14.4
2017-08-11T05:06:01.202Z,14.5
2017-08-11T05:07:01.958Z,14.6
2017-08-11T05:08:02.758Z,14.5
2017-08-11T05:09:03.501Z,14.5
2017-08-11T05:10:04.248Z,14.5
2017-08-11T05:11:05.390Z,14.5
2017-08-11T05:12:06.126Z,14.5
2017-08-11T05:13:06.860Z,14.4
2017-08-11T05:14:07.677Z,14.5
2017-08-11T05:15:08.447Z,14.6
2017-08-11T05:16:09.488Z,14.5
2017-08-11T05:17:10.230Z,14.6
2017-08-11T05:18:10.992Z,14.5
2017-08-11T05:19:11.780Z,14.6
2017-08-11T05:20:12.509Z,14.5
2017-08-11T05:21:13.737Z,14.5
2017-08-11T05:22:14.473Z,14.5
2017-08-11T05:23:15.292Z,14.5
2017-08-11T05:24:16.072Z,14.5
2017-08-11T05:25:16.805Z,14.5
2017-08-11T05:26:17.599Z,14.5
2017-08-11T05:27:18.423Z,14.5
2017-08-11T05:28:19.232Z,14.5
2017-08-11T05:29:20.290Z,14.5
2017-08-11T05:30:21.027Z,14.4
2017-08-11T05:31:21.762Z,14.5
2017-08-11T05:32:22.512Z,14.5
2017-08-11T05:33:23.246Z,14.5
2017-08-11T05:34:24.292Z,14.5
2017-08-11T05:35:25.088Z,14.5
2017-08-11T05:36:25.838Z,14.5
2017-08-11T05:37:26.653Z,14.6
2017-08-11T05:38:27.395Z,14.5
2017-08-11T05:39:28.218Z,14.6
2017-08-11T05:40:28.959Z,14.5
2017-08-11T05:41:29.686Z,14.5
2017-08-11T05:42:30.417Z,14.5
2017-08-11T05:43:31.159Z,14.5
2017-08-11T05:44:32.358Z,14.5
2017-08-11T05:45:33.182Z,14.5
2017-08-11T05:46:33.988Z,14.4
2017-08-11T05:47:34.797Z,14.4
2017-08-11T05:48:35.536Z,14.3
2017-08-11T05:49:36.792Z,14.4
2017-08-11T05:50:37.612Z,14.3
2017-08-11T05:51:38.416Z,14.4
2017-08-11T05:52:39.166Z,14.4
2017-08-11T05:53:39.950Z,14.3
2017-08-11T05:54:40.988Z,14.3
2017-08-11T05:55:41.815Z,14.3
2017-08-11T05:56:42.617Z,14.4
2017-08-11T05:57:43.363Z,14.4
2017-08-11T05:58:44.085Z,14.4
2017-08-11T05:59:45.018Z,14.4
2017-08-11T06:00:45.832Z,14.4
2017-08-11T06:01:46.665Z,14.4
2017-08-11T06:02:47.481Z,14.4
2017-08-11T06:03:48.227Z,14.4
2017-08-11T06:04:49.387Z,14.3
2017-08-11T06:05:50.112Z,14.3
2017-08-11T06:06:50.854Z,14.3
2017-08-11T06:07:51.585Z,14.3
2017-08-11T06:08:52.317Z,14.3
2017-08-11T06:09:53.522Z,14.3
2017-08-11T06:10:54.261Z,14.3
2017-08-11T06:11:55.050Z,14.3
2017-08-11T06:12:55.859Z,14.3
2017-08-11T06:13:56.915Z,14.4
2017-08-11T06:14:57.911Z,14.3
2017-08-11T06:15:58.648Z,14.3
2017-08-11T06:16:59.440Z,14.3
2017-08-11T06:18:00.187Z,14.3
2017-08-11T06:19:00.932Z,14.4
2017-08-11T06:20:02.047Z,14.4
2017-08-11T06:21:02.796Z,14.4
2017-08-11T06:22:03.594Z,14.4
2017-08-11T06:23:04.387Z,14.4
2017-08-11T06:24:05.141Z,14.4
2017-08-11T06:25:06.288Z,14.4
2017-08-11T06:26:07.090Z,14.5
2017-08-11T06:27:07.834Z,14.5
2017-08-11T06:28:08.646Z,14.4
2017-08-11T06:29:09.395Z,14.5
2017-08-11T06:30:10.588Z,14.5
2017-08-11T06:31:11.329Z,14.5
2017-08-11T06:32:12.084Z,14.5
2017-08-11T06:33:12.910Z,14.5
2017-08-11T06:34:13.729Z,14.5
2017-08-11T06:35:14.818Z,14.4
2017-08-11T06:36:15.561Z,14.6
2017-08-11T06:37:16.373Z,14.6
2017-08-11T06:38:17.168Z,14.5
2017-08-11T06:39:17.906Z,14.5
2017-08-11T06:40:19.104Z,14.6
2017-08-11T06:41:19.841Z,14.7
2017-08-11T06:42:20.588Z,14.6
2017-08-11T06:43:21.318Z,14.7
2017-08-11T06:44:22.070Z,14.6
2017-08-11T06:45:23.147Z,14.7
2017-08-11T06:46:23.880Z,14.6
2017-08-11T06:47:24.607Z,14.7
2017-08-11T06:48:25.361Z,14.5
2017-08-11T06:49:26.097Z,14.7
2017-08-11T06:50:27.230Z,14.6
2017-08-11T06:51:27.962Z,14.6
2017-08-11T06:52:28.712Z,14.6
2017-08-11T06:53:29.532Z,14.7
2017-08-11T06:54:30.271Z,14.7
2017-08-11T06:55:31.000Z,14.6
2017-08-11T06:56:31.791Z,14.6
2017-08-11T06:57:32.536Z,14.7
2017-08-11T06:58:33.279Z,14.5
2017-08-11T06:59:34.038Z,14.7
2017-08-11T07:00:35.016Z,14.7
2017-08-11T07:01:35.761Z,14.5
2017-08-11T07:02:36.498Z,14.7
2017-08-11T07:03:37.322Z,14.5
2017-08-11T07:04:38.133Z,14.6
2017-08-11T07:05:39.220Z,14.6
2017-08-11T07:06:39.988Z,14.7
2017-08-11T07:07:40.787Z,14.6
2017-08-11T07:08:41.576Z,14.7
2017-08-11T07:09:42.329Z,14.6
2017-08-11T07:10:43.111Z,14.6
2017-08-11T07:11:43.855Z,14.5
2017-08-11T07:12:44.890Z,14.6
2017-08-11T07:13:45.631Z,14.6
2017-08-11T07:14:46.446Z,14.7
2017-08-11T07:15:47.199Z,14.6
2017-08-11T07:16:48.004Z,14.7
2017-08-11T07:17:48.833Z,14.7
2017-08-11T07:18:49.935Z,14.5
2017-08-11T07:19:50.742Z,14.7
2017-08-11T07:20:51.481Z,14.6
2017-08-11T07:21:52.229Z,14.7
2017-08-11T07:22:52.993Z,14.7
2017-08-11T07:23:54.147Z,14.6
2017-08-11T07:24:54.902Z,14.6
2017-08-11T07:25:55.741Z,14.7
2017-08-11T07:26:56.477Z,14.5
2017-08-11T07:27:57.221Z,14.7
2017-08-11T07:28:58.303Z,14.7
2017-08-11T07:29:59.117Z,14.7
2017-08-11T07:30:59.849Z,14.6
2017-08-11T07:32:00.586Z,14.7
2017-08-11T07:33:01.350Z,14.7
2017-08-11T07:34:02.491Z,14.6
2017-08-11T07:35:03.231Z,14.6
2017-08-11T07:36:04.018Z,14.6
2017-08-11T07:37:04.820Z,14.7
2017-08-11T07:38:05.967Z,14.7
2017-08-11T07:39:07.773Z,14.6
2017-08-11T07:40:08.812Z,14.6
2017-08-11T07:41:09.627Z,14.6
2017-08-11T07:42:10.363Z,14.7
2017-08-11T07:43:11.102Z,14.7
2017-08-11T07:44:12.152Z,14.7
2017-08-11T07:45:12.964Z,14.7
2017-08-11T07:46:13.714Z,14.7
2017-08-11T07:47:14.525Z,14.7
2017-08-11T07:48:15.280Z,14.7
2017-08-11T07:49:16.431Z,14.6
2017-08-11T07:50:17.179Z,14.5
2017-08-11T07:51:17.959Z,14.6
2017-08-11T07:52:18.711Z,14.7
2017-08-11T07:53:19.469Z,14.7
2017-08-11T07:54:20.211Z,14.8
2017-08-11T07:55:20.963Z,14.7
2017-08-11T07:56:21.897Z,14.9
2017-08-11T07:57:22.645Z,14.8
2017-08-11T07:58:23.457Z,14.8
2017-08-11T07:59:24.204Z,14.9
2017-08-11T08:00:24.942Z,14.9
2017-08-11T08:01:25.925Z,14.9
2017-08-11T08:02:26.746Z,15.0
2017-08-11T08:03:27.536Z,15.0
2017-08-11T08:04:28.281Z,14.9
2017-08-11T08:05:29.031Z,14.9
2017-08-11T08:06:30.122Z,14.9
2017-08-11T08:07:30.863Z,14.9
2017-08-11T08:08:31.690Z,14.9
2017-08-11T08:09:32.484Z,14.7
2017-08-11T08:10:33.227Z,14.7
2017-08-11T08:11:34.441Z,14.7
2017-08-11T08:12:35.162Z,14.8
2017-08-11T08:13:35.907Z,14.8
2017-08-11T08:14:36.727Z,14.8
2017-08-11T08:15:37.555Z,14.8
2017-08-11T08:16:38.655Z,14.8
2017-08-11T08:17:39.389Z,14.8
2017-08-11T08:18:40.167Z,14.8
2017-08-11T08:19:40.974Z,14.8
2017-08-11T08:20:41.781Z,15.0
2017-08-11T08:21:42.521Z,15.0
2017-08-11T08:22:43.271Z,14.9
2017-08-11T08:23:44.011Z,15.0
2017-08-11T08:24:45.148Z,14.9
2017-08-11T08:25:45.979Z,14.9
2017-08-11T08:26:46.785Z,15.0
2017-08-11T08:27:47.531Z,15.0
2017-08-11T08:28:48.268Z,14.9
2017-08-11T08:29:49.404Z,15.0
2017-08-11T08:30:50.233Z,14.9
2017-08-11T08:31:50.986Z,14.9
2017-08-11T08:32:51.811Z,14.9
2017-08-11T08:33:52.553Z,15.0
2017-08-11T08:34:53.555Z,14.9
2017-08-11T08:35:54.362Z,15.0
2017-08-11T08:36:55.156Z,15.1
2017-08-11T08:37:55.969Z,14.9
2017-08-11T08:38:56.704Z,14.9
2017-08-11T08:39:57.651Z,15.0
2017-08-11T08:40:58.405Z,14.9
2017-08-11T08:41:59.212Z,15.0
2017-08-11T08:42:59.996Z,15.0
2017-08-11T08:44:00.740Z,15.0
2017-08-11T08:45:01.959Z,15.0
2017-08-11T08:46:02.787Z,15.0
2017-08-11T08:47:03.578Z,15.1
2017-08-11T08:48:04.371Z,15.1
2017-08-11T08:49:05.164Z,15.1
2017-08-11T08:50:06.373Z,15.0
2017-08-11T08:51:07.185Z,15.0
2017-08-11T08:52:07.927Z,15.0
2017-08-11T08:53:08.668Z,15.0
2017-08-11T08:54:09.404Z,14.9
2017-08-11T08:55:10.501Z,14.9
2017-08-11T08:56:11.270Z,14.9
2017-08-11T08:57:12.001Z,14.9
2017-08-11T08:58:12.746Z,14.9
2017-08-11T08:59:13.503Z,14.9
2017-08-11T09:00:14.265Z,15.0
2017-08-11T09:01:15.027Z,14.9
2017-08-11T09:02:15.803Z,14.9
2017-08-11T09:03:16.551Z,15.0
2017-08-11T09:04:17.286Z,14.9
2017-08-11T09:05:18.224Z,14.9
2017-08-11T09:06:18.957Z,15.0
2017-08-11T09:07:19.765Z,14.9
2017-08-11T09:08:20.791Z,14.9
2017-08-11T09:09:21.478Z,14.9
2017-08-11T09:10:22.228Z,14.9
2017-08-11T09:11:23.391Z,14.9
2017-08-11T09:12:24.147Z,15.0
2017-08-11T09:13:24.901Z,15.0
2017-08-11T09:14:25.732Z,14.9
2017-08-11T09:15:26.508Z,14.9
2017-08-11T09:16:27.537Z,14.8
2017-08-11T09:17:28.294Z,14.8
2017-08-11T09:18:29.037Z,15.0
2017-08-11T09:19:29.846Z,15.0
2017-08-11T09:20:30.626Z,15.0
2017-08-11T09:21:31.509Z,15.1
2017-08-11T09:22:32.237Z,15.0
2017-08-11T09:23:32.969Z,15.0
2017-08-11T09:24:33.794Z,15.1
2017-08-11T09:25:34.531Z,15.1
2017-08-11T09:26:35.577Z,15.1
2017-08-11T09:27:36.322Z,15.2
2017-08-11T09:28:37.058Z,15.1
2017-08-11T09:29:37.800Z,15.2
2017-08-11T09:30:38.542Z,15.2
2017-08-11T09:31:39.750Z,15.3
2017-08-11T09:32:40.535Z,15.2
2017-08-11T09:33:41.286Z,15.1
2017-08-11T09:34:42.032Z,15.2
2017-08-11T09:35:42.841Z,15.3
2017-08-11T09:36:43.591Z,15.3
2017-08-11T09:37:44.337Z,15.3
2017-08-11T09:38:45.160Z,15.3
2017-08-11T09:39:46.102Z,15.3
2017-08-11T09:40:46.940Z,15.2
2017-08-11T09:41:47.682Z,15.3
2017-08-11T09:42:48.422Z,15.3
2017-08-11T09:43:49.217Z,15.3
2017-08-11T09:44:49.961Z,15.3
2017-08-11T09:45:51.167Z,15.4
2017-08-11T09:46:51.933Z,15.4
2017-08-11T09:47:52.671Z,15.5
2017-08-11T09:48:53.500Z,15.5
2017-08-11T09:49:54.234Z,15.5
2017-08-11T09:50:55.230Z,15.5
2017-08-11T09:51:55.970Z,15.5
2017-08-11T09:52:56.709Z,15.5
2017-08-11T09:53:57.449Z,15.4
2017-08-11T09:54:58.980Z,15.4
2017-08-11T09:56:00.514Z,15.5
2017-08-11T09:57:01.346Z,15.5
2017-08-11T09:58:02.128Z,15.5
2017-08-11T09:59:02.866Z,15.6
2017-08-11T10:00:03.607Z,15.6
2017-08-11T10:01:04.771Z,15.6
2017-08-11T10:02:05.591Z,15.6
2017-08-11T10:03:06.399Z,15.6
2017-08-11T10:04:07.216Z,15.7
2017-08-11T10:05:08.047Z,15.7
2017-08-11T10:06:08.847Z,15.8
2017-08-11T10:07:09.619Z,15.9
2017-08-11T10:08:10.359Z,15.9
2017-08-11T10:09:11.097Z,16.0
2017-08-11T10:10:12.137Z,15.9
2017-08-11T10:11:12.891Z,15.9
2017-08-11T10:12:13.630Z,15.9
2017-08-11T10:13:14.370Z,15.9
2017-08-11T10:14:15.120Z,16.0
2017-08-11T10:15:16.262Z,16.0
2017-08-11T10:16:17.065Z,16.0
2017-08-11T10:17:17.850Z,16.0
2017-08-11T10:18:18.609Z,16.0
2017-08-11T10:19:19.354Z,16.1
2017-08-11T10:20:20.435Z,16.0
2017-08-11T10:21:21.172Z,16.1
2017-08-11T10:22:22.009Z,16.2
2017-08-11T10:23:22.831Z,16.0
2017-08-11T10:24:23.630Z,16.0
2017-08-11T10:25:24.786Z,16.0
2017-08-11T10:26:25.587Z,16.0
2017-08-11T10:27:26.332Z,16.0
2017-08-11T10:28:27.129Z,16.0
2017-08-11T10:29:27.871Z,15.9
2017-08-11T10:30:29.049Z,15.9
2017-08-11T10:31:29.838Z,15.9
2017-08-11T10:32:30.651Z,15.9
2017-08-11T10:33:31.398Z,15.9
2017-08-11T10:34:32.136Z,15.9
2017-08-11T10:35:33.325Z,15.9
2017-08-11T10:36:34.129Z,15.9
2017-08-11T10:37:34.852Z,15.9
2017-08-11T10:38:35.650Z,15.9
2017-08-11T10:39:36.438Z,15.8
2017-08-11T10:40:37.579Z,15.8
2017-08-11T10:41:38.324Z,15.9
2017-08-11T10:42:39.066Z,15.9
2017-08-11T10:43:39.806Z,15.9
2017-08-11T10:44:40.559Z,15.9
2017-08-11T10:45:41.559Z,15.9
2017-08-11T10:46:42.301Z,16.0
2017-08-11T10:47:43.053Z,16.0
2017-08-11T10:48:43.779Z,16.0
2017-08-11T10:49:44.602Z,16.1
2017-08-11T10:50:45.403Z,16.0
2017-08-11T10:51:46.240Z,16.0
2017-08-11T10:52:46.966Z,16.0
2017-08-11T10:53:47.785Z,16.0
2017-08-11T10:54:48.598Z,16.1
2017-08-11T10:55:49.689Z,16.1
2017-08-11T10:56:50.480Z,16.0
2017-08-11T10:57:51.299Z,16.0
2017-08-11T10:58:52.053Z,16.0
2017-08-11T10:59:52.850Z,15.8
2017-08-11T11:00:53.986Z,15.8
2017-08-11T11:01:54.784Z,15.9
2017-08-11T11:02:55.532Z,15.9
2017-08-11T11:03:56.346Z,15.8
2017-08-11T11:04:57.127Z,15.8
2017-08-11T11:05:57.954Z,15.9
2017-08-11T11:06:59.061Z,15.9
2017-08-11T11:07:59.808Z,15.9
2017-08-11T11:09:00.542Z,15.8
2017-08-11T11:10:01.298Z,15.8
2017-08-11T11:11:02.129Z,15.7
2017-08-11T11:12:03.201Z,15.8
2017-08-11T11:13:04.027Z,15.8
2017-08-11T11:14:04.767Z,15.8
2017-08-11T11:15:05.601Z,15.8
2017-08-11T11:16:06.336Z,15.7
2017-08-11T11:17:07.526Z,15.8
2017-08-11T11:18:08.266Z,15.7
2017-08-11T11:19:09.029Z,15.7
2017-08-11T11:20:09.729Z,15.7
2017-08-11T11:21:10.536Z,15.8
2017-08-11T11:22:11.592Z,15.9
2017-08-11T11:23:12.417Z,15.9
2017-08-11T11:24:13.160Z,15.9
2017-08-11T11:25:13.912Z,16.0
2017-08-11T11:26:14.696Z,16.0
2017-08-11T11:27:15.448Z,16.0
2017-08-11T11:28:16.247Z,16.0
2017-08-11T11:29:17.416Z,16.0
2017-08-11T11:30:18.173Z,16.0
2017-08-11T11:31:18.915Z,16.0
2017-08-11T11:32:19.812Z,16.0
2017-08-11T11:33:20.565Z,16.1
2017-08-11T11:34:21.715Z,16.0
2017-08-11T11:35:22.451Z,15.8
2017-08-11T11:36:23.258Z,15.8
2017-08-11T11:37:24.070Z,15.8
2017-08-11T11:38:24.896Z,15.7
2017-08-11T11:39:26.093Z,15.7
2017-08-11T11:40:26.779Z,15.7
2017-08-11T11:41:27.734Z,15.6
2017-08-11T11:42:28.511Z,15.6
2017-08-11T11:43:29.331Z,15.6
2017-08-11T11:44:30.162Z,15.7
2017-08-11T11:45:30.971Z,15.7
2017-08-11T11:46:31.702Z,15.7
2017-08-11T11:47:32.870Z,15.8
2017-08-11T11:48:33.649Z,15.7
2017-08-11T11:49:34.393Z,15.9
2017-08-11T11:50:35.232Z,15.9
2017-08-11T11:51:36.036Z,15.8
2017-08-11T11:52:36.981Z,15.9
2017-08-11T11:53:37.774Z,15.8
2017-08-11T11:54:38.591Z,15.8
2017-08-11T11:55:39.419Z,15.8
2017-08-11T11:56:40.155Z,15.7
2017-08-11T11:57:41.256Z,15.7
2017-08-11T11:58:42.010Z,15.7
2017-08-11T11:59:42.742Z,15.7
2017-08-11T12:00:43.497Z,15.6
2017-08-11T12:01:44.302Z,15.6
2017-08-11T12:02:45.037Z,15.6
2017-08-11T12:03:45.790Z,15.6
2017-08-11T12:04:46.531Z,15.6
2017-08-11T12:05:47.647Z,15.6
2017-08-11T12:06:48.468Z,15.6
2017-08-11T12:07:49.280Z,15.6
2017-08-11T12:08:50.084Z,15.6
2017-08-11T12:09:50.777Z,15.6
2017-08-11T12:10:51.857Z,15.5
2017-08-11T12:11:52.628Z,15.5
2017-08-11T12:12:53.449Z,15.6
2017-08-11T12:13:54.187Z,15.5
2017-08-11T12:14:54.990Z,15.5
2017-08-11T12:15:56.021Z,15.5
2017-08-11T12:16:56.814Z,15.4
2017-08-11T12:17:57.550Z,15.4
2017-08-11T12:18:58.295Z,15.4
2017-08-11T12:19:59.042Z,15.4
2017-08-11T12:21:00.212Z,15.4
2017-08-11T12:22:01.021Z,15.4
2017-08-11T12:23:01.757Z,15.4
2017-08-11T12:24:02.491Z,15.4
2017-08-11T12:25:03.226Z,15.4
2017-08-11T12:26:03.981Z,15.3
2017-08-11T12:27:04.728Z,15.4
2017-08-11T12:28:05.545Z,15.4
2017-08-11T12:29:06.645Z,15.3
2017-08-11T12:30:07.449Z,15.3
2017-08-11T12:31:08.198Z,15.3
2017-08-11T12:32:09.022Z,15.3
2017-08-11T12:33:09.767Z,15.3
2017-08-11T12:34:10.914Z,15.3
2017-08-11T12:35:11.657Z,15.2
2017-08-11T12:36:12.409Z,15.4
2017-08-11T12:37:13.156Z,15.3
2017-08-11T12:38:14.764Z,15.4
2017-08-11T12:39:15.513Z,15.6
2017-08-11T12:40:16.338Z,15.5
2017-08-11T12:41:17.140Z,15.5
2017-08-11T12:42:17.881Z,15.6
2017-08-11T12:43:19.116Z,15.5
2017-08-11T12:44:19.937Z,15.6
2017-08-11T12:45:21.308Z,15.6
2017-08-11T12:46:22.192Z,15.6
2017-08-11T12:47:22.935Z,15.6
2017-08-11T12:48:23.726Z,15.6
2017-08-11T12:49:24.560Z,15.6
2017-08-11T12:50:25.289Z,15.6
2017-08-11T12:51:26.116Z,15.6
2017-08-11T12:52:26.879Z,15.6
2017-08-11T12:53:27.694Z,15.5
2017-08-11T12:54:28.690Z,15.6
2017-08-11T12:55:29.501Z,15.6
2017-08-11T12:56:30.300Z,15.5
2017-08-11T12:57:31.048Z,15.6
2017-08-11T12:58:31.857Z,15.7
2017-08-11T12:59:33.036Z,15.7
2017-08-11T13:00:33.755Z,15.8
2017-08-11T13:01:34.561Z,15.8
2017-08-11T13:02:35.382Z,15.8
2017-08-11T13:03:36.196Z,15.7
2017-08-11T13:04:37.350Z,15.7
2017-08-11T13:05:38.126Z,15.7
2017-08-11T13:06:39.050Z,15.7
2017-08-11T13:07:39.872Z,15.7
2017-08-11T13:08:40.725Z,15.7
2017-08-11T13:09:41.689Z,15.7
2017-08-11T13:10:42.434Z,15.7
2017-08-11T13:11:43.242Z,15.7
2017-08-11T13:12:43.986Z,15.6
2017-08-11T13:13:44.755Z,15.7
2017-08-11T13:14:45.733Z,15.7
2017-08-11T13:15:46.547Z,15.7
2017-08-11T13:16:47.289Z,15.7
2017-08-11T13:17:48.096Z,15.6
2017-08-11T13:18:48.896Z,15.6
2017-08-11T13:19:50.034Z,15.5
2017-08-11T13:20:50.780Z,15.5
2017-08-11T13:21:51.512Z,15.5
2017-08-11T13:22:52.353Z,15.6
2017-08-11T13:23:53.371Z,15.5
2017-08-11T13:24:54.189Z,15.6
2017-08-11T13:25:55.981Z,15.6
2017-08-11T13:26:56.692Z,15.5
2017-08-11T13:27:57.497Z,15.5
2017-08-11T13:28:58.399Z,15.5
2017-08-11T13:29:59.660Z,15.6
2017-08-11T13:31:00.726Z,15.5